sensor_id;sensor_type;location;lat;lon;timestamp;pressure;altitude;pressure_sealevel;temperature;humidity
36630;BME280;36256;42.154;23.002;2023-11-22T00:00:17;96499.22;;;11.93;100.00
36630;BME280;36256;42.154;23.002;2023-11-22T00:02:43;96516.06;;;11.93;100.00
36630;BME280;36256;42.154;23.002;2023-11-22T00:05:10;96517.63;;;11.94;100.00
36630;BME280;36256;42.154;23.002;2023-11-22T00:07:37;96516.25;;;11.90;100.00
36630;BME280;36256;42.154;23.002;2023-11-22T00:10:05;96491.22;;;11.77;100.00
36630;BME280;36256;42.154;23.002;2023-11-22T00:12:32;96504.81;;;11.93;100.00
36630;BME280;36256;42.154;23.002;2023-11-22T00:15:05;96500.34;;;11.87;100.00
36630;BME280;36256;42.154;23.002;2023-11-22T00:17:36;96487.16;;;11.78;100.00
36630;BME280;36256;42.154;23.002;2023-11-22T00:20:03;96485.00;;;11.73;100.00
36630;BME280;36256;42.154;23.002;2023-11-22T00:22:32;96478.00;;;11.68;100.00
36630;BME280;36256;42.154;23.002;2023-11-22T00:25:02;96485.94;;;11.70;100.00
36630;BME280;36256;42.154;23.002;2023-11-22T00:27:32;96476.09;;;11.74;100.00
36630;BME280;36256;42.154;23.002;2023-11-22T00:29:59;96479.97;;;11.77;100.00
36630;BME280;36256;42.154;23.002;2023-11-22T00:32:26;96476.41;;;11.91;100.00
36630;BME280;36256;42.154;23.002;2023-11-22T00:34:53;96483.00;;;11.88;100.00
36630;BME280;36256;42.154;23.002;2023-11-22T00:37:19;96487.34;;;11.89;100.00
36630;BME280;36256;42.154;23.002;2023-11-22T00:39:46;96478.16;;;11.89;100.00
36630;BME280;36256;42.154;23.002;2023-11-22T00:42:13;96484.66;;;11.95;100.00
36630;BME280;36256;42.154;23.002;2023-11-22T00:44:40;96473.78;;;12.02;100.00
36630;BME280;36256;42.154;23.002;2023-11-22T00:47:07;96469.44;;;12.01;100.00
36630;BME280;36256;42.154;23.002;2023-11-22T00:49:34;96462.84;;;12.04;100.00
36630;BME280;36256;42.154;23.002;2023-11-22T00:52:01;96462.75;;;12.13;100.00
36630;BME280;36256;42.154;23.002;2023-11-22T00:54:29;96470.25;;;12.16;100.00
36630;BME280;36256;42.154;23.002;2023-11-22T00:56:56;96469.94;;;12.14;100.00
36630;BME280;36256;42.154;23.002;2023-11-22T00:59:23;96463.13;;;12.06;100.00
36630;BME280;36256;42.154;23.002;2023-11-22T01:01:49;96470.53;;;12.18;100.00
36630;BME280;36256;42.154;23.002;2023-11-22T01:04:16;96475.75;;;12.25;100.00
36630;BME280;36256;42.154;23.002;2023-11-22T01:06:43;96468.28;;;12.22;100.00
36630;BME280;36256;42.154;23.002;2023-11-22T01:09:09;96464.91;;;12.33;100.00
36630;BME280;36256;42.154;23.002;2023-11-22T01:11:38;96460.63;;;12.37;100.00
36630;BME280;36256;42.154;23.002;2023-11-22T01:14:05;96466.16;;;12.32;100.00
36630;BME280;36256;42.154;23.002;2023-11-22T01:16:32;96460.03;;;12.33;100.00
36630;BME280;36256;42.154;23.002;2023-11-22T01:18:58;96451.50;;;12.28;100.00
36630;BME280;36256;42.154;23.002;2023-11-22T01:21:25;96441.91;;;12.20;100.00
36630;BME280;36256;42.154;23.002;2023-11-22T01:23:52;96445.69;;;12.17;100.00
36630;BME280;36256;42.154;23.002;2023-11-22T01:26:18;96442.69;;;12.20;100.00
36630;BME280;36256;42.154;23.002;2023-11-22T01:28:45;96427.19;;;12.25;100.00
36630;BME280;36256;42.154;23.002;2023-11-22T01:31:12;96420.47;;;12.22;100.00
36630;BME280;36256;42.154;23.002;2023-11-22T01:33:39;96429.50;;;12.26;100.00
36630;BME280;36256;42.154;23.002;2023-11-22T01:36:06;96431.03;;;12.27;100.00
36630;BME280;36256;42.154;23.002;2023-11-22T01:38:33;96423.97;;;12.17;100.00
36630;BME280;36256;42.154;23.002;2023-11-22T01:41:00;96421.72;;;12.21;100.00
36630;BME280;36256;42.154;23.002;2023-11-22T01:43:28;96430.16;;;12.21;100.00
36630;BME280;36256;42.154;23.002;2023-11-22T01:45:55;96430.75;;;12.25;100.00
36630;BME280;36256;42.154;23.002;2023-11-22T01:48:23;96420.38;;;12.17;100.00
36630;BME280;36256;42.154;23.002;2023-11-22T01:50:50;96430.66;;;12.20;100.00
36630;BME280;36256;42.154;23.002;2023-11-22T01:53:18;96422.88;;;12.29;100.00
36630;BME280;36256;42.154;23.002;2023-11-22T01:55:46;96403.31;;;12.20;100.00
36630;BME280;36256;42.154;23.002;2023-11-22T01:58:13;96413.78;;;12.34;100.00
36630;BME280;36256;42.154;23.002;2023-11-22T02:00:50;96403.97;;;12.30;100.00
36630;BME280;36256;42.154;23.002;2023-11-22T02:03:18;96410.00;;;12.37;100.00
36630;BME280;36256;42.154;23.002;2023-11-22T02:05:45;96413.66;;;12.43;100.00
36630;BME280;36256;42.154;23.002;2023-11-22T02:08:12;96410.59;;;12.27;100.00
36630;BME280;36256;42.154;23.002;2023-11-22T02:10:40;96392.94;;;12.26;100.00
36630;BME280;36256;42.154;23.002;2023-11-22T02:13:07;96405.56;;;12.16;100.00
36630;BME280;36256;42.154;23.002;2023-11-22T02:15:34;96372.19;;;12.09;100.00
36630;BME280;36256;42.154;23.002;2023-11-22T02:18:04;96397.44;;;12.04;100.00
36630;BME280;36256;42.154;23.002;2023-11-22T02:20:39;96401.28;;;12.06;100.00
36630;BME280;36256;42.154;23.002;2023-11-22T02:23:09;96405.53;;;11.87;100.00
36630;BME280;36256;42.154;23.002;2023-11-22T02:25:38;96392.75;;;11.86;100.00
36630;BME280;36256;42.154;23.002;2023-11-22T02:28:05;96391.19;;;11.85;100.00
36630;BME280;36256;42.154;23.002;2023-11-22T02:30:32;96387.13;;;11.86;100.00
36630;BME280;36256;42.154;23.002;2023-11-22T02:32:58;96388.69;;;11.87;100.00
36630;BME280;36256;42.154;23.002;2023-11-22T02:35:26;96381.13;;;11.93;100.00
36630;BME280;36256;42.154;23.002;2023-11-22T02:37:53;96384.03;;;11.84;100.00
36630;BME280;36256;42.154;23.002;2023-11-22T02:40:22;96388.69;;;11.87;100.00
36630;BME280;36256;42.154;23.002;2023-11-22T02:42:50;96380.53;;;11.89;100.00
36630;BME280;36256;42.154;23.002;2023-11-22T02:45:18;96386.44;;;11.91;100.00
36630;BME280;36256;42.154;23.002;2023-11-22T02:47:45;96389.47;;;11.88;100.00
36630;BME280;36256;42.154;23.002;2023-11-22T02:50:13;96385.97;;;11.93;100.00
36630;BME280;36256;42.154;23.002;2023-11-22T02:52:40;96375.81;;;11.95;100.00
36630;BME280;36256;42.154;23.002;2023-11-22T02:55:08;96380.94;;;11.97;100.00
36630;BME280;36256;42.154;23.002;2023-11-22T02:57:38;96396.94;;;12.05;100.00
36630;BME280;36256;42.154;23.002;2023-11-22T03:00:09;96395.66;;;12.06;100.00
36630;BME280;36256;42.154;23.002;2023-11-22T03:02:42;96395.38;;;12.04;100.00
36630;BME280;36256;42.154;23.002;2023-11-22T03:05:09;96398.88;;;11.99;100.00
36630;BME280;36256;42.154;23.002;2023-11-22T03:07:37;96395.38;;;12.04;100.00
36630;BME280;36256;42.154;23.002;2023-11-22T03:10:04;96403.03;;;12.18;100.00
36630;BME280;36256;42.154;23.002;2023-11-22T03:12:31;96412.13;;;12.28;99.74
36630;BME280;36256;42.154;23.002;2023-11-22T03:14:58;96418.16;;;12.35;99.35
36630;BME280;36256;42.154;23.002;2023-11-22T03:17:27;96420.06;;;12.29;99.25
36630;BME280;36256;42.154;23.002;2023-11-22T03:19:55;96417.44;;;12.40;98.82
36630;BME280;36256;42.154;23.002;2023-11-22T03:22:27;96428.41;;;12.38;98.82
36630;BME280;36256;42.154;23.002;2023-11-22T03:24:57;96413.47;;;12.32;98.44
36630;BME280;36256;42.154;23.002;2023-11-22T03:27:25;96421.13;;;12.32;98.88
36630;BME280;36256;42.154;23.002;2023-11-22T03:29:52;96429.69;;;12.37;99.37
36630;BME280;36256;42.154;23.002;2023-11-22T03:32:19;96421.63;;;12.30;99.67
36630;BME280;36256;42.154;23.002;2023-11-22T03:34:46;96430.75;;;12.25;100.00
36630;BME280;36256;42.154;23.002;2023-11-22T03:37:12;96428.06;;;12.16;100.00
36630;BME280;36256;42.154;23.002;2023-11-22T03:39:39;96423.00;;;12.20;100.00
36630;BME280;36256;42.154;23.002;2023-11-22T03:42:06;96434.06;;;12.24;100.00
36630;BME280;36256;42.154;23.002;2023-11-22T03:44:33;96431.31;;;12.29;99.54
36630;BME280;36256;42.154;23.002;2023-11-22T03:46:59;96430.72;;;12.40;99.05
36630;BME280;36256;42.154;23.002;2023-11-22T03:49:26;96436.94;;;12.44;98.54
36630;BME280;36256;42.154;23.002;2023-11-22T03:51:54;96437.72;;;12.44;98.51
36630;BME280;36256;42.154;23.002;2023-11-22T03:54:21;96441.03;;;12.43;98.27
36630;BME280;36256;42.154;23.002;2023-11-22T03:56:47;96446.66;;;12.43;98.46
36630;BME280;36256;42.154;23.002;2023-11-22T03:59:14;96450.91;;;12.38;98.80
36630;BME280;36256;42.154;23.002;2023-11-22T04:01:41;96449.53;;;12.48;98.55
36630;BME280;36256;42.154;23.002;2023-11-22T04:04:07;96451.22;;;12.40;98.93
36630;BME280;36256;42.154;23.002;2023-11-22T04:06:36;96452.00;;;12.41;99.19
36630;BME280;36256;42.154;23.002;2023-11-22T04:09:03;96454.59;;;12.44;99.06
36630;BME280;36256;42.154;23.002;2023-11-22T04:11:30;96458.09;;;12.39;99.22
36630;BME280;36256;42.154;23.002;2023-11-22T04:13:57;96446.84;;;12.39;99.69
36630;BME280;36256;42.154;23.002;2023-11-22T04:16:24;96460.50;;;12.46;99.97
36630;BME280;36256;42.154;23.002;2023-11-22T04:18:52;96472.03;;;12.48;99.73
36630;BME280;36256;42.154;23.002;2023-11-22T04:21:18;96458.69;;;12.29;100.00
36630;BME280;36256;42.154;23.002;2023-11-22T04:23:45;96465.97;;;12.35;100.00
36630;BME280;36256;42.154;23.002;2023-11-22T04:26:12;96475.75;;;12.40;100.00
36630;BME280;36256;42.154;23.002;2023-11-22T04:28:39;96483.72;;;12.27;100.00
36630;BME280;36256;42.154;23.002;2023-11-22T04:31:06;96478.47;;;12.34;100.00
36630;BME280;36256;42.154;23.002;2023-11-22T04:33:35;96479.72;;;12.33;100.00
36630;BME280;36256;42.154;23.002;2023-11-22T04:36:03;96490.00;;;12.36;100.00
36630;BME280;36256;42.154;23.002;2023-11-22T04:38:30;96482.72;;;12.15;100.00
36630;BME280;36256;42.154;23.002;2023-11-22T04:40:56;96494.94;;;12.12;100.00
36630;BME280;36256;42.154;23.002;2023-11-22T04:43:23;96479.13;;;12.15;100.00
36630;BME280;36256;42.154;23.002;2023-11-22T04:45:50;96500.41;;;12.30;100.00
36630;BME280;36256;42.154;23.002;2023-11-22T04:48:16;96499.81;;;12.26;100.00
36630;BME280;36256;42.154;23.002;2023-11-22T04:50:43;96496.72;;;12.24;100.00
36630;BME280;36256;42.154;23.002;2023-11-22T04:53:10;96501.75;;;12.20;100.00
36630;BME280;36256;42.154;23.002;2023-11-22T04:55:37;96506.59;;;12.20;100.00
36630;BME280;36256;42.154;23.002;2023-11-22T04:58:04;96502.81;;;12.23;100.00
36630;BME280;36256;42.154;23.002;2023-11-22T05:00:30;96498.66;;;12.18;100.00
36630;BME280;36256;42.154;23.002;2023-11-22T05:02:57;96512.44;;;12.16;100.00
36630;BME280;36256;42.154;23.002;2023-11-22T05:05:24;96510.28;;;12.11;100.00
36630;BME280;36256;42.154;23.002;2023-11-22T05:07:51;96504.06;;;12.07;100.00
36630;BME280;36256;42.154;23.002;2023-11-22T05:10:17;96512.78;;;12.09;100.00
36630;BME280;36256;42.154;23.002;2023-11-22T05:12:44;96506.50;;;12.14;100.00
36630;BME280;36256;42.154;23.002;2023-11-22T05:15:11;96506.78;;;12.16;100.00
36630;BME280;36256;42.154;23.002;2023-11-22T05:17:38;96511.53;;;12.10;100.00
36630;BME280;36256;42.154;23.002;2023-11-22T05:20:06;96530.25;;;12.13;100.00
36630;BME280;36256;42.154;23.002;2023-11-22T05:22:36;96522.50;;;12.23;100.00
36630;BME280;36256;42.154;23.002;2023-11-22T05:25:04;96511.63;;;12.16;100.00
36630;BME280;36256;42.154;23.002;2023-11-22T05:27:31;96520.66;;;12.20;100.00
36630;BME280;36256;42.154;23.002;2023-11-22T05:29:59;96505.72;;;12.14;100.00
36630;BME280;36256;42.154;23.002;2023-11-22T05:32:28;96516.41;;;12.24;100.00
36630;BME280;36256;42.154;23.002;2023-11-22T05:34:55;96524.84;;;12.24;100.00
36630;BME280;36256;42.154;23.002;2023-11-22T05:37:22;96512.72;;;12.18;100.00
36630;BME280;36256;42.154;23.002;2023-11-22T05:39:51;96522.91;;;12.30;100.00
36630;BME280;36256;42.154;23.002;2023-11-22T05:42:18;96522.91;;;12.30;100.00
36630;BME280;36256;42.154;23.002;2023-11-22T05:44:44;96530.06;;;12.31;100.00
36630;BME280;36256;42.154;23.002;2023-11-22T05:47:11;96531.63;;;12.32;100.00
36630;BME280;36256;42.154;23.002;2023-11-22T05:49:40;96541.13;;;12.35;100.00
36630;BME280;36256;42.154;23.002;2023-11-22T05:52:06;96541.59;;;12.33;100.00
36630;BME280;36256;42.154;23.002;2023-11-22T05:54:33;96554.22;;;12.38;100.00
36630;BME280;36256;42.154;23.002;2023-11-22T05:57:00;96554.50;;;12.40;100.00
36630;BME280;36256;42.154;23.002;2023-11-22T05:59:27;96559.97;;;12.43;100.00
36630;BME280;36256;42.154;23.002;2023-11-22T06:01:53;96557.44;;;12.45;100.00
36630;BME280;36256;42.154;23.002;2023-11-22T06:04:20;96561.22;;;12.42;100.00
36630;BME280;36256;42.154;23.002;2023-11-22T06:06:47;96566.56;;;12.40;100.00
36630;BME280;36256;42.154;23.002;2023-11-22T06:09:14;96562.94;;;12.40;100.00
36630;BME280;36256;42.154;23.002;2023-11-22T06:11:41;96561.50;;;12.44;100.00
36630;BME280;36256;42.154;23.002;2023-11-22T06:14:08;96561.72;;;12.55;100.00
36630;BME280;36256;42.154;23.002;2023-11-22T06:16:35;96561.78;;;12.46;100.00
36630;BME280;36256;42.154;23.002;2023-11-22T06:19:01;96570.66;;;12.54;100.00
36630;BME280;36256;42.154;23.002;2023-11-22T06:21:28;96567.72;;;12.48;100.00
36630;BME280;36256;42.154;23.002;2023-11-22T06:23:55;96572.75;;;12.44;100.00
36630;BME280;36256;42.154;23.002;2023-11-22T06:26:25;96577.03;;;12.40;100.00
36630;BME280;36256;42.154;23.002;2023-11-22T06:28:53;96580.75;;;12.46;100.00
36630;BME280;36256;42.154;23.002;2023-11-22T06:31:19;96586.53;;;12.42;100.00
36630;BME280;36256;42.154;23.002;2023-11-22T06:33:46;96593.72;;;12.43;100.00
36630;BME280;36256;42.154;23.002;2023-11-22T06:36:13;96592.00;;;12.46;100.00
36630;BME280;36256;42.154;23.002;2023-11-22T06:38:41;96603.84;;;12.50;100.00
36630;BME280;36256;42.154;23.002;2023-11-22T06:41:08;96609.25;;;12.53;100.00
36630;BME280;36256;42.154;23.002;2023-11-22T06:43:35;96602.75;;;12.33;100.00
36630;BME280;36256;42.154;23.002;2023-11-22T06:46:02;96618.66;;;12.12;100.00
36630;BME280;36256;42.154;23.002;2023-11-22T06:48:32;96615.72;;;11.92;100.00
36630;BME280;36256;42.154;23.002;2023-11-22T06:51:00;96616.78;;;11.95;100.00
36630;BME280;36256;42.154;23.002;2023-11-22T06:53:27;96614.94;;;11.92;100.00
36630;BME280;36256;42.154;23.002;2023-11-22T06:55:54;96618.66;;;11.74;100.00
36630;BME280;36256;42.154;23.002;2023-11-22T06:58:21;96614.19;;;11.58;100.00
36630;BME280;36256;42.154;23.002;2023-11-22T07:00:48;96597.66;;;11.51;100.00
36630;BME280;36256;42.154;23.002;2023-11-22T07:03:14;96610.28;;;11.56;100.00
36630;BME280;36256;42.154;23.002;2023-11-22T07:05:43;96615.94;;;11.47;100.00
36630;BME280;36256;42.154;23.002;2023-11-22T07:08:09;96619.28;;;11.36;100.00
36630;BME280;36256;42.154;23.002;2023-11-22T07:10:39;96630.97;;;11.44;100.00
36630;BME280;36256;42.154;23.002;2023-11-22T07:13:05;96639.81;;;11.51;100.00
36630;BME280;36256;42.154;23.002;2023-11-22T07:15:33;96649.28;;;11.63;100.00
36630;BME280;36256;42.154;23.002;2023-11-22T07:17:59;96643.81;;;11.68;100.00
36630;BME280;36256;42.154;23.002;2023-11-22T07:20:26;96640.22;;;11.68;100.00
36630;BME280;36256;42.154;23.002;2023-11-22T07:22:53;96635.63;;;11.79;100.00
36630;BME280;36256;42.154;23.002;2023-11-22T07:25:24;96642.38;;;11.73;100.00
36630;BME280;36256;42.154;23.002;2023-11-22T07:27:58;96634.13;;;11.69;100.00
36630;BME280;36256;42.154;23.002;2023-11-22T07:30:25;96639.88;;;11.75;100.00
36630;BME280;36256;42.154;23.002;2023-11-22T07:32:56;96630.53;;;11.69;100.00
36630;BME280;36256;42.154;23.002;2023-11-22T07:35:26;96632.81;;;11.79;100.00
36630;BME280;36256;42.154;23.002;2023-11-22T07:37:55;96618.66;;;11.65;100.00
36630;BME280;36256;42.154;23.002;2023-11-22T07:40:21;96614.00;;;11.62;100.00
36630;BME280;36256;42.154;23.002;2023-11-22T07:42:48;96625.81;;;11.75;100.00
36630;BME280;36256;42.154;23.002;2023-11-22T07:45:15;96635.81;;;11.76;100.00
36630;BME280;36256;42.154;23.002;2023-11-22T07:47:43;96630.50;;;11.78;100.00
36630;BME280;36256;42.154;23.002;2023-11-22T07:50:10;96650.03;;;11.96;100.00
36630;BME280;36256;42.154;23.002;2023-11-22T07:52:40;96654.13;;;11.95;100.00
36630;BME280;36256;42.154;23.002;2023-11-22T07:55:08;96637.00;;;11.84;100.00
36630;BME280;36256;42.154;23.002;2023-11-22T07:57:37;96630.47;;;12.02;100.00
36630;BME280;36256;42.154;23.002;2023-11-22T08:00:06;96638.25;;;12.07;100.00
36630;BME280;36256;42.154;23.002;2023-11-22T08:02:34;96625.28;;;12.09;100.00
36630;BME280;36256;42.154;23.002;2023-11-22T08:05:05;96636.47;;;12.18;100.00
36630;BME280;36256;42.154;23.002;2023-11-22T08:07:36;96639.47;;;12.29;100.00
36630;BME280;36256;42.154;23.002;2023-11-22T08:10:07;96647.56;;;12.36;100.00
36630;BME280;36256;42.154;23.002;2023-11-22T08:12:36;96645.88;;;12.30;100.00
36630;BME280;36256;42.154;23.002;2023-11-22T08:15:05;96646.00;;;12.35;100.00
36630;BME280;36256;42.154;23.002;2023-11-22T08:17:32;96655.22;;;12.36;100.00
36630;BME280;36256;42.154;23.002;2023-11-22T08:19:59;96652.28;;;12.30;100.00
36630;BME280;36256;42.154;23.002;2023-11-22T08:22:36;96646.91;;;12.41;100.00
36630;BME280;36256;42.154;23.002;2023-11-22T08:25:03;96652.06;;;12.57;100.00
36630;BME280;36256;42.154;23.002;2023-11-22T08:27:30;96660.72;;;12.69;100.00
36630;BME280;36256;42.154;23.002;2023-11-22T08:29:58;96655.38;;;12.71;100.00
36630;BME280;36256;42.154;23.002;2023-11-22T08:32:24;96661.31;;;12.73;100.00
36630;BME280;36256;42.154;23.002;2023-11-22T08:34:54;96661.03;;;12.85;100.00
36630;BME280;36256;42.154;23.002;2023-11-22T08:37:21;96668.69;;;12.99;100.00
36630;BME280;36256;42.154;23.002;2023-11-22T08:39:49;96666.66;;;13.00;100.00
36630;BME280;36256;42.154;23.002;2023-11-22T08:42:16;96678.81;;;13.06;100.00
36630;BME280;36256;42.154;23.002;2023-11-22T08:44:44;96685.63;;;13.14;100.00
36630;BME280;36256;42.154;23.002;2023-11-22T08:47:12;96681.16;;;13.22;100.00
36630;BME280;36256;42.154;23.002;2023-11-22T08:49:39;96669.78;;;13.16;100.00
36630;BME280;36256;42.154;23.002;2023-11-22T08:52:08;96669.88;;;13.07;100.00
36630;BME280;36256;42.154;23.002;2023-11-22T08:54:35;96675.50;;;13.07;100.00
36630;BME280;36256;42.154;23.002;2023-11-22T08:57:03;96678.22;;;13.02;100.00
36630;BME280;36256;42.154;23.002;2023-11-22T08:59:30;96687.94;;;13.01;100.00
36630;BME280;36256;42.154;23.002;2023-11-22T09:01:57;96682.47;;;12.97;100.00
36630;BME280;36256;42.154;23.002;2023-11-22T09:04:23;96677.28;;;13.05;100.00
36630;BME280;36256;42.154;23.002;2023-11-22T09:06:52;96679.59;;;13.06;100.00
36630;BME280;36256;42.154;23.002;2023-11-22T09:09:23;96671.03;;;13.01;100.00
36630;BME280;36256;42.154;23.002;2023-11-22T09:11:57;96681.31;;;13.04;100.00
36630;BME280;36256;42.154;23.002;2023-11-22T09:14:24;96699.22;;;13.15;100.00
36630;BME280;36256;42.154;23.002;2023-11-22T09:16:51;96690.09;;;13.20;100.00
36630;BME280;36256;42.154;23.002;2023-11-22T09:19:24;96686.09;;;13.27;100.00
36630;BME280;36256;42.154;23.002;2023-11-22T09:21:51;96680.56;;;13.18;100.00
36630;BME280;36256;42.154;23.002;2023-11-22T09:24:18;96676.13;;;13.26;100.00
36630;BME280;36256;42.154;23.002;2023-11-22T09:26:45;96673.19;;;13.20;100.00
36630;BME280;36256;42.154;23.002;2023-11-22T09:29:12;96681.63;;;13.35;100.00
36630;BME280;36256;42.154;23.002;2023-11-22T09:31:41;96677.03;;;13.52;100.00
36630;BME280;36256;42.154;23.002;2023-11-22T09:34:09;96680.94;;;13.55;100.00
36630;BME280;36256;42.154;23.002;2023-11-22T09:36:36;96678.31;;;13.51;100.00
36630;BME280;36256;42.154;23.002;2023-11-22T09:39:03;96684.06;;;13.42;100.00
36630;BME280;36256;42.154;23.002;2023-11-22T09:41:37;96686.59;;;13.40;100.00
36630;BME280;36256;42.154;23.002;2023-11-22T09:44:05;96676.28;;;13.37;100.00
36630;BME280;36256;42.154;23.002;2023-11-22T09:46:33;96669.38;;;13.38;100.00
36630;BME280;36256;42.154;23.002;2023-11-22T09:49:04;96681.44;;;13.53;100.00
36630;BME280;36256;42.154;23.002;2023-11-22T09:51:37;96676.66;;;13.59;100.00
36630;BME280;36256;42.154;23.002;2023-11-22T09:54:05;96665.72;;;13.67;100.00
36630;BME280;36256;42.154;23.002;2023-11-22T09:56:35;96666.22;;;13.65;100.00
36630;BME280;36256;42.154;23.002;2023-11-22T09:59:04;96673.28;;;13.75;100.00
36630;BME280;36256;42.154;23.002;2023-11-22T10:01:33;96658.56;;;13.66;100.00
36630;BME280;36256;42.154;23.002;2023-11-22T10:04:03;96672.94;;;13.68;100.00
36630;BME280;36256;42.154;23.002;2023-11-22T10:06:34;96671.56;;;13.63;100.00
36630;BME280;36256;42.154;23.002;2023-11-22T10:09:02;96660.59;;;13.65;100.00
36630;BME280;36256;42.154;23.002;2023-11-22T10:11:36;96676.28;;;13.86;100.00
36630;BME280;36256;42.154;23.002;2023-11-22T10:14:10;96672.31;;;13.78;100.00
36630;BME280;36256;42.154;23.002;2023-11-22T10:16:37;96676.97;;;13.81;100.00
36630;BME280;36256;42.154;23.002;2023-11-22T10:19:04;96668.16;;;13.74;100.00
36630;BME280;36256;42.154;23.002;2023-11-22T10:21:34;96667.25;;;13.82;100.00
36630;BME280;36256;42.154;23.002;2023-11-22T10:24:02;96673.47;;;13.86;100.00
36630;BME280;36256;42.154;23.002;2023-11-22T10:26:30;96673.47;;;13.86;100.00
36630;BME280;36256;42.154;23.002;2023-11-22T10:28:58;96667.41;;;13.93;100.00
36630;BME280;36256;42.154;23.002;2023-11-22T10:31:25;96665.56;;;13.90;100.00
36630;BME280;36256;42.154;23.002;2023-11-22T10:33:53;96670.81;;;13.97;100.00
36630;BME280;36256;42.154;23.002;2023-11-22T10:36:23;96669.25;;;13.96;100.00
36630;BME280;36256;42.154;23.002;2023-11-22T10:38:50;96665.66;;;13.96;100.00
36630;BME280;36256;42.154;23.002;2023-11-22T10:41:21;96681.38;;;14.02;100.00
36630;BME280;36256;42.154;23.002;2023-11-22T10:43:52;96677.69;;;13.96;100.00
36630;BME280;36256;42.154;23.002;2023-11-22T10:46:27;96672.63;;;14.00;100.00
36630;BME280;36256;42.154;23.002;2023-11-22T10:48:54;96677.34;;;14.09;100.00
36630;BME280;36256;42.154;23.002;2023-11-22T10:51:22;96687.88;;;14.08;100.00
36630;BME280;36256;42.154;23.002;2023-11-22T10:53:50;96683.50;;;14.07;100.00
36630;BME280;36256;42.154;23.002;2023-11-22T10:56:19;96681.81;;;14.15;100.00
36630;BME280;36256;42.154;23.002;2023-11-22T10:58:55;96686.94;;;14.32;100.00
36630;BME280;36256;42.154;23.002;2023-11-22T11:01:25;96667.25;;;14.37;100.00
36630;BME280;36256;42.154;23.002;2023-11-22T11:04:03;96674.25;;;14.42;100.00
36630;BME280;36256;42.154;23.002;2023-11-22T11:06:35;96686.66;;;14.50;100.00
36630;BME280;36256;42.154;23.002;2023-11-22T11:09:05;96669.22;;;14.51;100.00
36630;BME280;36256;42.154;23.002;2023-11-22T11:11:34;96679.03;;;14.56;100.00
36630;BME280;36256;42.154;23.002;2023-11-22T11:14:03;96679.84;;;14.62;100.00
36630;BME280;36256;42.154;23.002;2023-11-22T11:16:30;96672.59;;;14.55;100.00
36630;BME280;36256;42.154;23.002;2023-11-22T11:19:01;96680.88;;;14.59;100.00
36630;BME280;36256;42.154;23.002;2023-11-22T11:21:28;96675.91;;;14.54;100.00
36630;BME280;36256;42.154;23.002;2023-11-22T11:23:56;96679.56;;;14.60;100.00
36630;BME280;36256;42.154;23.002;2023-11-22T11:26:32;96681.94;;;14.61;100.00
36630;BME280;36256;42.154;23.002;2023-11-22T11:28:58;96684.81;;;14.67;100.00
36630;BME280;36256;42.154;23.002;2023-11-22T11:31:31;96693.00;;;14.65;100.00
36630;BME280;36256;42.154;23.002;2023-11-22T11:33:59;96676.28;;;14.61;100.00
36630;BME280;36256;42.154;23.002;2023-11-22T11:36:30;96677.63;;;14.46;100.00
36630;BME280;36256;42.154;23.002;2023-11-22T11:39:00;96681.41;;;14.43;100.00
36630;BME280;36256;42.154;23.002;2023-11-22T11:41:29;96683.56;;;14.48;100.00
36630;BME280;36256;42.154;23.002;2023-11-22T11:43:58;96676.75;;;14.60;100.00
36630;BME280;36256;42.154;23.002;2023-11-22T11:46:25;96679.38;;;14.89;100.00
36630;BME280;36256;42.154;23.002;2023-11-22T11:48:53;96683.66;;;15.05;100.00
36630;BME280;36256;42.154;23.002;2023-11-22T11:51:28;96680.88;;;15.10;100.00
36630;BME280;36256;42.154;23.002;2023-11-22T11:53:55;96693.59;;;15.20;100.00
36630;BME280;36256;42.154;23.002;2023-11-22T11:56:23;96687.28;;;15.31;100.00
36630;BME280;36256;42.154;23.002;2023-11-22T11:58:56;96683.94;;;15.32;100.00
36630;BME280;36256;42.154;23.002;2023-11-22T12:01:28;96683.72;;;15.10;100.00
36630;BME280;36256;42.154;23.002;2023-11-22T12:03:56;96678.91;;;15.16;100.00
36630;BME280;36256;42.154;23.002;2023-11-22T12:06:23;96686.53;;;15.10;100.00
36630;BME280;36256;42.154;23.002;2023-11-22T12:08:50;96685.44;;;15.02;100.00
36630;BME280;36256;42.154;23.002;2023-11-22T12:11:17;96693.63;;;15.00;100.00
36630;BME280;36256;42.154;23.002;2023-11-22T12:13:45;96686.22;;;15.03;100.00
36630;BME280;36256;42.154;23.002;2023-11-22T12:16:15;96678.25;;;15.01;100.00
36630;BME280;36256;42.154;23.002;2023-11-22T12:18:46;96687.59;;;15.13;100.00
36630;BME280;36256;42.154;23.002;2023-11-22T12:21:18;96687.72;;;14.98;100.00
36630;BME280;36256;42.154;23.002;2023-11-22T12:23:46;96690.25;;;14.96;100.00
36630;BME280;36256;42.154;23.002;2023-11-22T12:26:19;96681.72;;;14.90;100.00
36630;BME280;36256;42.154;23.002;2023-11-22T12:28:47;96685.91;;;14.95;100.00
36630;BME280;36256;42.154;23.002;2023-11-22T12:31:29;96689.69;;;14.92;100.00
36630;BME280;36256;42.154;23.002;2023-11-22T12:34:01;96698.88;;;14.87;100.00
36630;BME280;36256;42.154;23.002;2023-11-22T12:36:29;96703.56;;;14.90;100.00
36630;BME280;36256;42.154;23.002;2023-11-22T12:38:56;96718.28;;;15.00;100.00
36630;BME280;36256;42.154;23.002;2023-11-22T12:41:26;96721.84;;;14.94;100.00
36630;BME280;36256;42.154;23.002;2023-11-22T12:44:05;96719.94;;;14.86;100.00